sensor_id;sensor_type;location;lat;lon;timestamp;pressure;altitude;pressure_sealevel;temperature;humidity
47556;BME280;33291;46.222;26.460;2023-01-31T00:00:24;95667.69;;;-1.86;72.21
47556;BME280;33291;46.222;26.460;2023-01-31T00:02:49;95676.25;;;-1.87;73.56
47556;BME280;33291;46.222;26.460;2023-01-31T00:05:15;95664.38;;;-1.88;73.74
47556;BME280;33291;46.222;26.460;2023-01-31T00:07:40;95661.81;;;-1.88;73.62
47556;BME280;33291;46.222;26.460;2023-01-31T00:10:06;95670.47;;;-1.91;73.45
47556;BME280;33291;46.222;26.460;2023-01-31T00:12:31;95666.09;;;-1.89;73.95
47556;BME280;33291;46.222;26.460;2023-01-31T00:14:57;95672.03;;;-1.88;73.73
47556;BME280;33291;46.222;26.460;2023-01-31T00:17:23;95662.16;;;-1.94;74.56
47556;BME280;33291;46.222;26.460;2023-01-31T00:19:48;95667.09;;;-1.91;74.52
47556;BME280;33291;46.222;26.460;2023-01-31T00:22:14;95666.03;;;-1.87;74.42
47556;BME280;33291;46.222;26.460;2023-01-31T00:24:39;95671.13;;;-1.87;74.26
47556;BME280;33291;46.222;26.460;2023-01-31T00:27:05;95677.13;;;-1.88;73.82
47556;BME280;33291;46.222;26.460;2023-01-31T00:29:31;95660.53;;;-1.95;73.22
47556;BME280;33291;46.222;26.460;2023-01-31T00:31:57;95667.69;;;-1.86;72.96
47556;BME280;33291;46.222;26.460;2023-01-31T00:34:22;95664.53;;;-1.91;72.73
47556;BME280;33291;46.222;26.460;2023-01-31T00:36:48;95677.03;;;-1.87;73.00
47556;BME280;33291;46.222;26.460;2023-01-31T00:39:13;95662.56;;;-1.86;72.67
47556;BME280;33291;46.222;26.460;2023-01-31T00:41:38;95668.50;;;-1.86;72.81
47556;BME280;33291;46.222;26.460;2023-01-31T00:44:05;95661.69;;;-1.85;71.77
47556;BME280;33291;46.222;26.460;2023-01-31T00:46:30;95663.38;;;-1.86;71.63
47556;BME280;33291;46.222;26.460;2023-01-31T00:48:56;95653.69;;;-1.95;71.98
47556;BME280;33291;46.222;26.460;2023-01-31T00:51:24;95662.75;;;-1.89;72.39
47556;BME280;33291;46.222;26.460;2023-01-31T00:53:49;95660.19;;;-1.89;71.93
47556;BME280;33291;46.222;26.460;2023-01-31T00:56:18;95666.03;;;-1.87;71.79
47556;BME280;33291;46.222;26.460;2023-01-31T00:58:44;95655.91;;;-1.89;72.00
47556;BME280;33291;46.222;26.460;2023-01-31T01:01:20;95666.03;;;-1.87;72.08
47556;BME280;33291;46.222;26.460;2023-01-31T01:03:46;95663.47;;;-1.87;72.16
47556;BME280;33291;46.222;26.460;2023-01-31T01:06:13;95666.03;;;-1.87;71.89
47556;BME280;33291;46.222;26.460;2023-01-31T01:08:39;95666.19;;;-1.90;72.04
47556;BME280;33291;46.222;26.460;2023-01-31T01:11:15;95668.50;;;-1.86;72.27
47556;BME280;33291;46.222;26.460;2023-01-31T01:13:41;95665.22;;;-1.88;72.04
47556;BME280;33291;46.222;26.460;2023-01-31T01:16:10;95664.06;;;-1.82;71.79
47556;BME280;33291;46.222;26.460;2023-01-31T01:18:36;95657.31;;;-1.83;71.94
47556;BME280;33291;46.222;26.460;2023-01-31T01:21:09;95656.50;;;-1.84;72.03
47556;BME280;33291;46.222;26.460;2023-01-31T01:23:35;95642.81;;;-1.83;71.90
47556;BME280;33291;46.222;26.460;2023-01-31T01:26:01;95654.66;;;-1.82;71.54
47556;BME280;33291;46.222;26.460;2023-01-31T01:28:26;95652.13;;;-1.82;72.35
47556;BME280;33291;46.222;26.460;2023-01-31T01:30:52;95637.13;;;-1.88;71.74
47556;BME280;33291;46.222;26.460;2023-01-31T01:33:17;95647.09;;;-1.83;71.97
47556;BME280;33291;46.222;26.460;2023-01-31T01:35:42;95636.28;;;-1.88;72.11
47556;BME280;33291;46.222;26.460;2023-01-31T01:38:08;95636.88;;;-1.83;72.17
47556;BME280;33291;46.222;26.460;2023-01-31T01:40:35;95607.44;;;-2.05;72.09
47556;BME280;33291;46.222;26.460;2023-01-31T01:43:01;95640.50;;;-1.87;71.84
47556;BME280;33291;46.222;26.460;2023-01-31T01:45:27;95653.69;;;-1.79;71.40
47556;BME280;33291;46.222;26.460;2023-01-31T01:47:55;95645.34;;;-1.83;71.62
47556;BME280;33291;46.222;26.460;2023-01-31T01:50:33;95658.63;;;-1.76;71.21
47556;BME280;33291;46.222;26.460;2023-01-31T01:53:11;95647.00;;;-1.82;71.58
47556;BME280;33291;46.222;26.460;2023-01-31T01:55:50;95653.50;;;-1.76;72.18
47556;BME280;33291;46.222;26.460;2023-01-31T01:58:35;95654.50;;;-1.79;72.43
47556;BME280;33291;46.222;26.460;2023-01-31T02:01:03;95654.50;;;-1.79;72.86
47556;BME280;33291;46.222;26.460;2023-01-31T02:03:29;95643.72;;;-1.84;73.14
47556;BME280;33291;46.222;26.460;2023-01-31T02:05:58;95653.50;;;-1.76;73.50
47556;BME280;33291;46.222;26.460;2023-01-31T02:08:28;95638.38;;;-1.79;73.74
47556;BME280;33291;46.222;26.460;2023-01-31T02:11:07;95644.47;;;-1.82;74.52
47556;BME280;33291;46.222;26.460;2023-01-31T02:13:34;95651.13;;;-1.79;74.75
47556;BME280;33291;46.222;26.460;2023-01-31T02:16:00;95637.06;;;-1.86;75.09
47556;BME280;33291;46.222;26.460;2023-01-31T02:18:26;95641.00;;;-1.81;75.39
47556;BME280;33291;46.222;26.460;2023-01-31T02:31:48;95649.06;;;-1.88;77.48
47556;BME280;33291;46.222;26.460;2023-01-31T02:45:10;95645.78;;;-1.90;76.96
47556;BME280;33291;46.222;26.460;2023-01-31T02:50:26;95647.25;;;-1.86;75.51
47556;BME280;33291;46.222;26.460;2023-01-31T02:55:51;95662.50;;;-1.85;76.93
47556;BME280;33291;46.222;26.460;2023-01-31T02:58:37;95648.50;;;-1.93;76.74
47556;BME280;33291;46.222;26.460;2023-01-31T03:01:06;95664.16;;;-1.84;77.02
47556;BME280;33291;46.222;26.460;2023-01-31T03:03:36;95651.69;;;-1.90;77.01
47556;BME280;33291;46.222;26.460;2023-01-31T03:08:34;95654.03;;;-1.85;78.30
47556;BME280;33291;46.222;26.460;2023-01-31T03:11:03;95648.41;;;-1.92;79.04
47556;BME280;33291;46.222;26.460;2023-01-31T03:13:55;95651.59;;;-1.88;79.34
47556;BME280;33291;46.222;26.460;2023-01-31T03:16:32;95655.97;;;-1.90;77.97
47556;BME280;33291;46.222;26.460;2023-01-31T03:19:21;95621.25;;;-2.09;78.05
47556;BME280;33291;46.222;26.460;2023-01-31T03:22:08;95660.91;;;-1.87;77.84
47556;BME280;33291;46.222;26.460;2023-01-31T03:24:35;95623.72;;;-2.07;76.68
47556;BME280;33291;46.222;26.460;2023-01-31T03:27:01;95650.06;;;-1.91;76.79
47556;BME280;33291;46.222;26.460;2023-01-31T03:29:31;95655.66;;;-1.84;77.21
47556;BME280;33291;46.222;26.460;2023-01-31T03:32:26;95645.22;;;-1.95;77.47
47556;BME280;33291;46.222;26.460;2023-01-31T03:34:51;95669.34;;;-1.85;78.66
47556;BME280;33291;46.222;26.460;2023-01-31T03:40:11;95675.16;;;-1.83;79.32
47556;BME280;33291;46.222;26.460;2023-01-31T03:45:34;95696.50;;;-1.84;79.90
47556;BME280;33291;46.222;26.460;2023-01-31T03:48:03;95689.75;;;-1.85;80.27
47556;BME280;33291;46.222;26.460;2023-01-31T03:50:44;95692.38;;;-1.87;80.44
47556;BME280;33291;46.222;26.460;2023-01-31T03:53:40;95693.28;;;-1.88;80.81
47556;BME280;33291;46.222;26.460;2023-01-31T03:56:28;95693.22;;;-1.86;80.93
47556;BME280;33291;46.222;26.460;2023-01-31T03:59:02;95684.97;;;-1.91;80.97
47556;BME280;33291;46.222;26.460;2023-01-31T04:01:31;95687.34;;;-1.88;80.66
47556;BME280;33291;46.222;26.460;2023-01-31T04:04:19;95688.28;;;-1.89;80.89
47556;BME280;33291;46.222;26.460;2023-01-31T04:06:46;95680.09;;;-1.96;80.92
47556;BME280;33291;46.222;26.460;2023-01-31T04:09:12;95695.94;;;-1.89;82.52
47556;BME280;33291;46.222;26.460;2023-01-31T04:11:38;95705.28;;;-1.90;82.48
47556;BME280;33291;46.222;26.460;2023-01-31T04:14:05;95696.00;;;-1.91;82.21
47556;BME280;33291;46.222;26.460;2023-01-31T04:16:30;95691.56;;;-1.87;82.17
47556;BME280;33291;46.222;26.460;2023-01-31T04:18:56;95705.88;;;-1.85;82.21
47556;BME280;33291;46.222;26.460;2023-01-31T04:21:22;95684.97;;;-1.91;82.13
47556;BME280;33291;46.222;26.460;2023-01-31T04:23:47;95699.97;;;-1.85;81.85
47556;BME280;33291;46.222;26.460;2023-01-31T04:26:13;95693.72;;;-1.95;82.16
47556;BME280;33291;46.222;26.460;2023-01-31T04:28:39;95709.41;;;-1.87;82.90
47556;BME280;33291;46.222;26.460;2023-01-31T04:31:04;95704.72;;;-1.95;83.46
47556;BME280;33291;46.222;26.460;2023-01-31T04:33:30;95723.09;;;-1.88;83.98
47556;BME280;33291;46.222;26.460;2023-01-31T04:35:55;95713.97;;;-1.92;84.35
47556;BME280;33291;46.222;26.460;2023-01-31T04:38:21;95715.19;;;-2.00;85.12
47556;BME280;33291;46.222;26.460;2023-01-31T04:40:46;95720.84;;;-1.94;85.22
47556;BME280;33291;46.222;26.460;2023-01-31T04:43:12;95732.88;;;-1.97;85.95
47556;BME280;33291;46.222;26.460;2023-01-31T04:45:37;95727.28;;;-2.03;85.99
47556;BME280;33291;46.222;26.460;2023-01-31T04:48:03;95733.94;;;-2.01;85.91
47556;BME280;33291;46.222;26.460;2023-01-31T04:50:29;95729.59;;;-1.99;85.55
47556;BME280;33291;46.222;26.460;2023-01-31T04:52:54;95728.59;;;-1.96;83.49
47556;BME280;33291;46.222;26.460;2023-01-31T04:55:20;95734.38;;;-1.92;82.04
47556;BME280;33291;46.222;26.460;2023-01-31T04:57:45;95741.03;;;-1.90;81.39
47556;BME280;33291;46.222;26.460;2023-01-31T05:00:11;95735.03;;;-1.89;80.88
47556;BME280;33291;46.222;26.460;2023-01-31T05:02:37;95733.47;;;-1.91;79.04
47556;BME280;33291;46.222;26.460;2023-01-31T05:05:04;95749.22;;;-1.83;78.33
47556;BME280;33291;46.222;26.460;2023-01-31T05:07:30;95745.91;;;-1.85;77.31
47556;BME280;33291;46.222;26.460;2023-01-31T05:09:55;95749.84;;;-1.80;77.60
47556;BME280;33291;46.222;26.460;2023-01-31T05:12:21;95749.03;;;-1.80;77.76
47556;BME280;33291;46.222;26.460;2023-01-31T05:14:46;95743.38;;;-1.85;77.09
47556;BME280;33291;46.222;26.460;2023-01-31T05:17:12;95752.66;;;-1.84;77.88
47556;BME280;33291;46.222;26.460;2023-01-31T05:19:37;95756.88;;;-1.83;77.88
47556;BME280;33291;46.222;26.460;2023-01-31T05:22:03;95764.53;;;-1.83;78.43
47556;BME280;33291;46.222;26.460;2023-01-31T05:24:31;95764.53;;;-1.83;78.50
47556;BME280;33291;46.222;26.460;2023-01-31T05:27:01;95762.06;;;-1.85;78.74
47556;BME280;33291;46.222;26.460;2023-01-31T05:29:29;95761.44;;;-1.90;79.65
47556;BME280;33291;46.222;26.460;2023-01-31T05:31:56;95769.88;;;-1.88;79.46
47556;BME280;33291;46.222;26.460;2023-01-31T05:34:23;95768.13;;;-1.87;79.62
47556;BME280;33291;46.222;26.460;2023-01-31T05:36:54;95771.50;;;-1.87;79.55
47556;BME280;33291;46.222;26.460;2023-01-31T05:39:20;95773.25;;;-1.87;79.79
47556;BME280;33291;46.222;26.460;2023-01-31T05:41:46;95773.31;;;-1.89;80.26
47556;BME280;33291;46.222;26.460;2023-01-31T05:44:12;95785.28;;;-1.89;80.63
47556;BME280;33291;46.222;26.460;2023-01-31T05:46:38;95780.66;;;-1.99;80.97
47556;BME280;33291;46.222;26.460;2023-01-31T05:49:04;95793.81;;;-1.90;81.33
47556;BME280;33291;46.222;26.460;2023-01-31T05:51:30;95792.16;;;-1.91;81.11
47556;BME280;33291;46.222;26.460;2023-01-31T05:53:55;95753.38;;;-2.14;81.68
47556;BME280;33291;46.222;26.460;2023-01-31T05:56:21;95799.75;;;-1.90;82.13
47556;BME280;33291;46.222;26.460;2023-01-31T05:58:47;95794.63;;;-1.90;81.60
47556;BME280;33291;46.222;26.460;2023-01-31T06:01:17;95789.19;;;-2.00;82.26
47556;BME280;33291;46.222;26.460;2023-01-31T06:03:43;95796.84;;;-2.00;81.66
47556;BME280;33291;46.222;26.460;2023-01-31T06:06:08;95800.91;;;-1.95;82.16
47556;BME280;33291;46.222;26.460;2023-01-31T06:08:34;95810.97;;;-1.92;81.90
47556;BME280;33291;46.222;26.460;2023-01-31T06:11:03;95805.25;;;-1.98;81.46
47556;BME280;33291;46.222;26.460;2023-01-31T06:13:30;95813.44;;;-1.91;81.69
47556;BME280;33291;46.222;26.460;2023-01-31T06:15:55;95804.03;;;-1.90;81.36
47556;BME280;33291;46.222;26.460;2023-01-31T06:18:20;95797.44;;;-1.94;81.24
47556;BME280;33291;46.222;26.460;2023-01-31T06:20:46;95798.03;;;-1.89;81.08
47556;BME280;33291;46.222;26.460;2023-01-31T06:23:11;95788.22;;;-1.97;80.97
47556;BME280;33291;46.222;26.460;2023-01-31T06:25:37;95793.97;;;-1.93;81.35
47556;BME280;33291;46.222;26.460;2023-01-31T06:28:02;95773.41;;;-2.06;80.78
47556;BME280;33291;46.222;26.460;2023-01-31T06:30:28;95803.78;;;-1.86;80.42
47556;BME280;33291;46.222;26.460;2023-01-31T06:32:54;95792.00;;;-1.88;79.92
47556;BME280;33291;46.222;26.460;2023-01-31T06:35:19;95790.88;;;-1.83;79.71
47556;BME280;33291;46.222;26.460;2023-01-31T06:37:45;95798.44;;;-1.81;79.45
47556;BME280;33291;46.222;26.460;2023-01-31T06:40:11;95786.91;;;-1.88;79.20
47556;BME280;33291;46.222;26.460;2023-01-31T06:42:36;95800.91;;;-1.80;78.84
47556;BME280;33291;46.222;26.460;2023-01-31T06:45:02;95804.88;;;-1.74;79.28
47556;BME280;33291;46.222;26.460;2023-01-31T06:47:28;95800.44;;;-1.70;77.34
47556;BME280;33291;46.222;26.460;2023-01-31T06:49:53;95801.19;;;-1.68;77.29
47556;BME280;33291;46.222;26.460;2023-01-31T06:52:18;95791.06;;;-1.70;77.33
47556;BME280;33291;46.222;26.460;2023-01-31T06:54:44;95790.91;;;-1.67;77.18
47556;BME280;33291;46.222;26.460;2023-01-31T06:57:09;95793.63;;;-1.70;76.98
47556;BME280;33291;46.222;26.460;2023-01-31T06:59:35;95795.00;;;-1.64;76.96
47556;BME280;33291;46.222;26.460;2023-01-31T07:02:00;95794.03;;;-1.62;76.85
47556;BME280;33291;46.222;26.460;2023-01-31T07:04:26;95787.59;;;-1.69;76.82
47556;BME280;33291;46.222;26.460;2023-01-31T07:06:51;95808.13;;;-1.54;76.79
47556;BME280;33291;46.222;26.460;2023-01-31T07:09:16;95793.84;;;-1.58;77.12
47556;BME280;33291;46.222;26.460;2023-01-31T07:11:42;95807.72;;;-1.47;77.13
47556;BME280;33291;46.222;26.460;2023-01-31T07:14:07;95814.41;;;-1.44;77.14
47556;BME280;33291;46.222;26.460;2023-01-31T07:16:33;95815.59;;;-1.35;77.39
47556;BME280;33291;46.222;26.460;2023-01-31T07:18:59;95823.94;;;-1.32;77.93
47556;BME280;33291;46.222;26.460;2023-01-31T07:21:24;95818.06;;;-1.34;78.07
47556;BME280;33291;46.222;26.460;2023-01-31T07:23:51;95811.50;;;-1.38;78.42
47556;BME280;33291;46.222;26.460;2023-01-31T07:26:16;95837.28;;;-1.27;78.97
47556;BME280;33291;46.222;26.460;2023-01-31T07:28:42;95838.03;;;-1.25;78.60
47556;BME280;33291;46.222;26.460;2023-01-31T07:31:10;95834.72;;;-1.27;78.07
47556;BME280;33291;46.222;26.460;2023-01-31T07:33:37;95846.44;;;-1.22;78.42
47556;BME280;33291;46.222;26.460;2023-01-31T07:36:04;95848.25;;;-1.25;79.73
47556;BME280;33291;46.222;26.460;2023-01-31T07:38:31;95851.56;;;-1.22;80.05
47556;BME280;33291;46.222;26.460;2023-01-31T07:41:01;95856.50;;;-1.19;80.27
47556;BME280;33291;46.222;26.460;2023-01-31T07:43:27;95840.44;;;-1.21;80.45
47556;BME280;33291;46.222;26.460;2023-01-31T07:45:53;95853.69;;;-1.15;80.89
47556;BME280;33291;46.222;26.460;2023-01-31T07:48:19;95836.22;;;-1.22;80.52
47556;BME280;33291;46.222;26.460;2023-01-31T07:50:58;95854.34;;;-1.11;79.99
47556;BME280;33291;46.222;26.460;2023-01-31T07:53:26;95826.16;;;-1.26;79.16
47556;BME280;33291;46.222;26.460;2023-01-31T07:55:52;95851.38;;;-1.03;79.12
47556;BME280;33291;46.222;26.460;2023-01-31T07:58:18;95844.81;;;-1.08;78.97
47556;BME280;33291;46.222;26.460;2023-01-31T08:00:43;95852.03;;;-1.00;78.88
47556;BME280;33291;46.222;26.460;2023-01-31T08:03:29;95853.50;;;-0.96;78.78
47556;BME280;33291;46.222;26.460;2023-01-31T08:06:16;95845.09;;;-0.98;78.75
47556;BME280;33291;46.222;26.460;2023-01-31T08:08:43;95859.22;;;-0.91;78.52
47556;BME280;33291;46.222;26.460;2023-01-31T08:11:08;95856.47;;;-0.87;78.13
47556;BME280;33291;46.222;26.460;2023-01-31T08:13:34;95859.44;;;-0.79;78.26
47556;BME280;33291;46.222;26.460;2023-01-31T08:16:02;95869.41;;;-0.75;77.91
47556;BME280;33291;46.222;26.460;2023-01-31T08:18:27;95855.97;;;-0.78;76.56
47556;BME280;33291;46.222;26.460;2023-01-31T08:20:53;95855.88;;;-0.77;76.55
47556;BME280;33291;46.222;26.460;2023-01-31T08:23:20;95858.00;;;-0.69;76.27
47556;BME280;33291;46.222;26.460;2023-01-31T08:25:45;95860.16;;;-0.61;76.36
47556;BME280;33291;46.222;26.460;2023-01-31T08:28:11;95861.28;;;-0.51;76.55
47556;BME280;33291;46.222;26.460;2023-01-31T08:30:41;95862.31;;;-0.39;76.47
47556;BME280;33291;46.222;26.460;2023-01-31T08:33:08;95853.44;;;-0.33;76.11
47556;BME280;33291;46.222;26.460;2023-01-31T08:35:34;95853.03;;;-0.26;75.71
47556;BME280;33291;46.222;26.460;2023-01-31T08:38:00;95859.25;;;-0.15;75.54
47556;BME280;33291;46.222;26.460;2023-01-31T08:40:25;95848.03;;;-0.13;75.18
47556;BME280;33291;46.222;26.460;2023-01-31T08:42:57;95848.66;;;-0.09;73.87
47556;BME280;33291;46.222;26.460;2023-01-31T08:45:25;95855.66;;;0.03;71.36
47556;BME280;33291;46.222;26.460;2023-01-31T08:47:54;95865.06;;;0.17;70.28
47556;BME280;33291;46.222;26.460;2023-01-31T08:50:21;95871.56;;;0.23;69.49
47556;BME280;33291;46.222;26.460;2023-01-31T08:52:54;95867.72;;;0.30;68.70
47556;BME280;33291;46.222;26.460;2023-01-31T08:55:20;95850.53;;;0.32;68.07
47556;BME280;33291;46.222;26.460;2023-01-31T08:57:46;95868.53;;;0.45;68.04
47556;BME280;33291;46.222;26.460;2023-01-31T09:00:13;95867.19;;;0.53;67.57
47556;BME280;33291;46.222;26.460;2023-01-31T09:02:38;95875.41;;;0.59;67.07
47556;BME280;33291;46.222;26.460;2023-01-31T09:05:04;95865.16;;;0.59;66.21
47556;BME280;33291;46.222;26.460;2023-01-31T09:07:33;95876.50;;;0.69;66.70
47556;BME280;33291;46.222;26.460;2023-01-31T09:09:58;95876.84;;;0.77;66.81
47556;BME280;33291;46.222;26.460;2023-01-31T09:12:24;95888.91;;;0.89;67.13
47556;BME280;33291;46.222;26.460;2023-01-31T09:14:50;95881.94;;;0.92;66.58
47556;BME280;33291;46.222;26.460;2023-01-31T09:17:16;95879.91;;;0.97;66.91
47556;BME280;33291;46.222;26.460;2023-01-31T09:19:41;95896.28;;;1.09;66.94
47556;BME280;33291;46.222;26.460;2023-01-31T09:22:07;95896.00;;;1.13;66.90
47556;BME280;33291;46.222;26.460;2023-01-31T09:24:32;95890.47;;;1.19;67.00
47556;BME280;33291;46.222;26.460;2023-01-31T09:26:58;95906.25;;;1.28;67.03
47556;BME280;33291;46.222;26.460;2023-01-31T09:29:23;95898.34;;;1.31;66.65
47556;BME280;33291;46.222;26.460;2023-01-31T09:31:50;95894.13;;;1.30;66.21
47556;BME280;33291;46.222;26.460;2023-01-31T09:34:16;95896.50;;;1.33;66.33
47556;BME280;33291;46.222;26.460;2023-01-31T09:36:42;95914.88;;;1.39;66.17
47556;BME280;33291;46.222;26.460;2023-01-31T09:39:10;95898.78;;;1.37;66.18
47556;BME280;33291;46.222;26.460;2023-01-31T09:44:19;95906.91;;;1.44;66.44
47556;BME280;33291;46.222;26.460;2023-01-31T09:46:54;95905.97;;;1.45;66.68
47556;BME280;33291;46.222;26.460;2023-01-31T09:49:28;95904.88;;;1.49;66.18
47556;BME280;33291;46.222;26.460;2023-01-31T09:51:59;95901.56;;;1.47;65.61
47556;BME280;33291;46.222;26.460;2023-01-31T09:54:30;95895.91;;;1.42;65.87
47556;BME280;33291;46.222;26.460;2023-01-31T10:07:36;95886.72;;;1.52;66.58
47556;BME280;33291;46.222;26.460;2023-01-31T10:10:26;95878.28;;;1.50;67.10
47556;BME280;33291;46.222;26.460;2023-01-31T10:12:57;95872.94;;;1.53;64.49
47556;BME280;33291;46.222;26.460;2023-01-31T10:15:32;95878.72;;;1.57;64.28
47556;BME280;33291;46.222;26.460;2023-01-31T10:18:05;95881.19;;;1.58;61.52
47556;BME280;33291;46.222;26.460;2023-01-31T10:20:40;95883.03;;;1.56;61.82
47556;BME280;33291;46.222;26.460;2023-01-31T10:23:38;95882.50;;;1.51;60.18
47556;BME280;33291;46.222;26.460;2023-01-31T10:26:03;95879.22;;;1.49;59.95
47556;BME280;33291;46.222;26.460;2023-01-31T10:33:51;95881.03;;;1.47;60.53
47556;BME280;33291;46.222;26.460;2023-01-31T10:36:30;95877.56;;;1.48;60.22
47556;BME280;33291;46.222;26.460;2023-01-31T10:49:57;95867.09;;;1.51;60.10
47556;BME280;33291;46.222;26.460;2023-01-31T10:55:28;95860.59;;;1.46;60.32
47556;BME280;33291;46.222;26.460;2023-01-31T10:57:56;95879.00;;;1.52;60.58
47556;BME280;33291;46.222;26.460;2023-01-31T11:00:30;95868.75;;;1.52;60.62
47556;BME280;33291;46.222;26.460;2023-01-31T11:02:57;95869.66;;;1.51;60.08
47556;BME280;33291;46.222;26.460;2023-01-31T11:05:26;95868.00;;;1.50;60.52
47556;BME280;33291;46.222;26.460;2023-01-31T11:07:55;95857.53;;;1.53;61.44
47556;BME280;33291;46.222;26.460;2023-01-31T11:10:27;95859.09;;;1.56;62.15
47556;BME280;33291;46.222;26.460;2023-01-31T11:15:23;95865.78;;;1.58;61.44
47556;BME280;33291;46.222;26.460;2023-01-31T11:17:50;95855.72;;;1.55;60.64
47556;BME280;33291;46.222;26.460;2023-01-31T11:20:30;95862.50;;;1.56;60.22
47556;BME280;33291;46.222;26.460;2023-01-31T11:22:58;95865.06;;;1.56;59.28
47556;BME280;33291;46.222;26.460;2023-01-31T11:25:26;95862.19;;;1.61;59.40
47556;BME280;33291;46.222;26.460;2023-01-31T11:27:56;95855.13;;;1.65;60.21
47556;BME280;33291;46.222;26.460;2023-01-31T11:30:26;95866.53;;;1.73;59.17
47556;BME280;33291;46.222;26.460;2023-01-31T11:32:53;95866.44;;;1.75;59.31
47556;BME280;33291;46.222;26.460;2023-01-31T11:38:00;95862.81;;;1.77;59.69
47556;BME280;33291;46.222;26.460;2023-01-31T11:40:32;95865.28;;;1.79;59.77
47556;BME280;33291;46.222;26.460;2023-01-31T11:45:42;95864.16;;;1.70;60.56
47556;BME280;33291;46.222;26.460;2023-01-31T11:48:22;95866.53;;;1.73;59.83
47556;BME280;33291;46.222;26.460;2023-01-31T11:50:59;95864.06;;;1.72;59.87
47556;BME280;33291;46.222;26.460;2023-01-31T11:53:32;95858.00;;;1.73;60.00
47556;BME280;33291;46.222;26.460;2023-01-31T11:56:12;95869.00;;;1.75;60.49
47556;BME280;33291;46.222;26.460;2023-01-31T11:58:40;95837.75;;;1.55;61.43
47556;BME280;33291;46.222;26.460;2023-01-31T12:01:13;95858.75;;;1.75;61.19
47556;BME280;33291;46.222;26.460;2023-01-31T12:03:56;95847.72;;;1.73;60.88
47556;BME280;33291;46.222;26.460;2023-01-31T12:08:56;95868.91;;;1.76;59.25
47556;BME280;33291;46.222;26.460;2023-01-31T12:11:32;95862.13;;;1.75;59.22
47556;BME280;33291;46.222;26.460;2023-01-31T12:14:13;95864.59;;;1.77;58.80
47556;BME280;33291;46.222;26.460;2023-01-31T12:16:41;95864.47;;;1.78;59.17
47556;BME280;33291;46.222;26.460;2023-01-31T12:40:39;95868.91;;;1.89;63.44
47556;BME280;33291;46.222;26.460;2023-01-31T12:53:41;95886.28;;;1.99;66.25
47556;BME280;33291;46.222;26.460;2023-01-31T12:59:24;95896.16;;;1.92;62.09
47556;BME280;33291;46.222;26.460;2023-01-31T13:04:56;95895.81;;;1.84;64.35
47556;BME280;33291;46.222;26.460;2023-01-31T13:07:44;95898.47;;;1.82;63.53
47556;BME280;33291;46.222;26.460;2023-01-31T13:10:25;95908.94;;;1.79;62.92
47556;BME280;33291;46.222;26.460;2023-01-31T13:12:52;95904.97;;;1.75;62.45
47556;BME280;33291;46.222;26.460;2023-01-31T13:15:27;95908.72;;;1.69;61.95
47556;BME280;33291;46.222;26.460;2023-01-31T13:18:00;95883.69;;;1.46;62.12
47556;BME280;33291;46.222;26.460;2023-01-31T13:23:03;95923.91;;;1.59;61.32
47556;BME280;33291;46.222;26.460;2023-01-31T13:25:41;95926.03;;;1.53;60.81
47556;BME280;33291;46.222;26.460;2023-01-31T13:28:16;95933.53;;;1.56;60.87
47556;BME280;33291;46.222;26.460;2023-01-31T13:30:56;95927.97;;;1.49;61.74
47556;BME280;33291;46.222;26.460;2023-01-31T13:38:33;95930.84;;;1.45;63.88
47556;BME280;33291;46.222;26.460;2023-01-31T13:41:03;95916.84;;;1.36;62.88
47556;BME280;33291;46.222;26.460;2023-01-31T13:43:29;95941.28;;;1.41;61.55
47556;BME280;33291;46.222;26.460;2023-01-31T13:46:08;95935.31;;;1.41;62.06
47556;BME280;33291;46.222;26.460;2023-01-31T13:48:41;95934.59;;;1.39;62.27
47556;BME280;33291;46.222;26.460;2023-01-31T13:51:40;95940.66;;;1.38;62.49
47556;BME280;33291;46.222;26.460;2023-01-31T13:54:41;95933.97;;;1.35;62.13
47556;BME280;33291;46.222;26.460;2023-01-31T13:57:06;95932.41;;;1.33;60.81
47556;BME280;33291;46.222;26.460;2023-01-31T13:59:34;95907.72;;;1.17;62.30
47556;BME280;33291;46.222;26.460;2023-01-31T14:02:04;95940.94;;;1.33;62.96
47556;BME280;33291;46.222;26.460;2023-01-31T14:04:34;95947.81;;;1.33;61.44
47556;BME280;33291;46.222;26.460;2023-01-31T14:09:42;95952.34;;;1.29;65.32
47556;BME280;33291;46.222;26.460;2023-01-31T14:14:53;95953.72;;;1.20;66.52
47556;BME280;33291;46.222;26.460;2023-01-31T14:25:38;95953.53;;;1.09;68.86
47556;BME280;33291;46.222;26.460;2023-01-31T14:28:08;95943.56;;;1.04;69.54
47556;BME280;33291;46.222;26.460;2023-01-31T14:30:41;95946.31;;;1.01;68.06
47556;BME280;33291;46.222;26.460;2023-01-31T14:52:35;95978.66;;;1.04;65.85
47556;BME280;33291;46.222;26.460;2023-01-31T14:57:47;95984.34;;;0.95;69.71
47556;BME280;33291;46.222;26.460;2023-01-31T15:00:20;95978.66;;;0.89;69.06
47556;BME280;33291;46.222;26.460;2023-01-31T15:03:19;95979.78;;;0.85;66.73
47556;BME280;33291;46.222;26.460;2023-01-31T15:05:51;95980.69;;;0.84;66.10
47556;BME280;33291;46.222;26.460;2023-01-31T15:10:59;95967.13;;;0.68;68.79
47556;BME280;33291;46.222;26.460;2023-01-31T15:13:47;95984.31;;;0.80;67.00
47556;BME280;33291;46.222;26.460;2023-01-31T15:16:39;95975.38;;;0.73;66.28
47556;BME280;33291;46.222;26.460;2023-01-31T15:19:13;95988.72;;;0.78;65.54
47556;BME280;33291;46.222;26.460;2023-01-31T15:24:16;95995.78;;;0.75;67.03
47556;BME280;33291;46.222;26.460;2023-01-31T15:26:44;96007.84;;;0.73;67.97
47556;BME280;33291;46.222;26.460;2023-01-31T15:29:18;96010.59;;;0.69;65.88
47556;BME280;33291;46.222;26.460;2023-01-31T15:31:47;96021.34;;;0.76;66.20
47556;BME280;33291;46.222;26.460;2023-01-31T15:34:31;96017.03;;;0.77;68.25
47556;BME280;33291;46.222;26.460;2023-01-31T15:37:14;96019.88;;;0.72;67.91
47556;BME280;33291;46.222;26.460;2023-01-31T15:40:00;96028.47;;;0.71;69.25
47556;BME280;33291;46.222;26.460;2023-01-31T15:42:28;96028.81;;;0.65;69.27
47556;BME280;33291;46.222;26.460;2023-01-31T15:45:34;96028.91;;;0.63;67.41
47556;BME280;33291;46.222;26.460;2023-01-31T15:48:15;96035.03;;;0.61;66.62
47556;BME280;33291;46.222;26.460;2023-01-31T15:50:55;96040.09;;;0.62;68.45